createdAt,value
2022-11-30T00:01:58.649Z,83.19
2022-11-30T00:04:29.841Z,83.02
2022-11-30T00:07:01.303Z,83.10
2022-11-30T00:09:30.407Z,83.06
2022-11-30T00:12:01.014Z,83.11
2022-11-30T00:14:33.920Z,83.25
2022-11-30T00:17:05.931Z,83.25
2022-11-30T00:19:38.985Z,83.10
2022-11-30T00:22:08.952Z,82.98
2022-11-30T00:24:40.202Z,83.04
2022-11-30T00:27:12.962Z,82.88
2022-11-30T00:29:44.106Z,82.95
2022-11-30T00:32:14.967Z,82.87
2022-11-30T00:34:48.079Z,82.94
2022-11-30T00:37:16.926Z,82.81
2022-11-30T00:39:50.166Z,82.68
2022-11-30T00:42:23.281Z,82.94
2022-11-30T00:44:55.981Z,82.83
2022-11-30T00:50:20.677Z,83.03
2022-11-30T00:52:56.596Z,83.15
2022-11-30T00:55:26.143Z,83.06
2022-11-30T00:57:55.314Z,83.04
2022-11-30T01:00:26.966Z,83.05
2022-11-30T01:02:56.719Z,82.83
2022-11-30T01:05:35.228Z,82.95
2022-11-30T01:08:07.453Z,83.03
2022-11-30T01:10:45.224Z,82.90
2022-11-30T01:13:16.371Z,82.87
2022-11-30T01:15:45.812Z,82.71
2022-11-30T01:18:14.526Z,82.81
2022-11-30T01:20:46.531Z,82.99
2022-11-30T01:23:15.269Z,82.79
2022-11-30T01:25:55.771Z,82.86
2022-11-30T01:28:24.711Z,82.99
2022-11-30T01:31:02.130Z,83.14
2022-11-30T01:33:36.178Z,83.15
2022-11-30T01:36:11.619Z,82.98
2022-11-30T01:38:43.162Z,82.92
2022-11-30T01:41:18.829Z,82.91
2022-11-30T01:43:51.212Z,82.72
2022-11-30T01:46:32.514Z,82.83
2022-11-30T01:49:20.865Z,82.82
2022-11-30T01:51:58.907Z,82.77
2022-11-30T01:54:36.760Z,83.07
2022-11-30T01:57:15.950Z,82.94
2022-11-30T01:59:44.962Z,83.04
2022-11-30T02:02:13.727Z,82.97
2022-11-30T02:04:47.063Z,83.05
2022-11-30T02:07:20.968Z,82.95
2022-11-30T02:09:50.944Z,82.90
2022-11-30T02:12:30.345Z,82.93
2022-11-30T02:15:14.179Z,82.89
2022-11-30T02:17:59.625Z,82.92
2022-11-30T02:20:50.110Z,82.93
2022-11-30T02:24:08.798Z,82.88
2022-11-30T02:27:03.945Z,82.91
2022-11-30T02:29:40.042Z,82.97
2022-11-30T02:32:18.309Z,82.90
2022-11-30T02:34:50.650Z,82.79
2022-11-30T02:37:23.230Z,82.93
2022-11-30T02:39:51.890Z,83.00
2022-11-30T02:42:22.108Z,82.89
2022-11-30T02:44:55.566Z,82.89
2022-11-30T02:47:33.193Z,82.81
2022-11-30T02:50:10.577Z,82.80
2022-11-30T02:52:39.846Z,82.93
2022-11-30T02:55:19.731Z,82.90
2022-11-30T02:57:48.626Z,83.07
2022-11-30T03:00:20.420Z,83.11
2022-11-30T03:02:50.616Z,83.00
2022-11-30T03:05:19.348Z,83.03
2022-11-30T03:07:48.052Z,82.94
2022-11-30T03:10:17.600Z,83.00
2022-11-30T03:12:49.572Z,82.92
2022-11-30T03:15:19.888Z,83.11
2022-11-30T03:17:49.839Z,83.00
2022-11-30T03:20:18.569Z,83.03
2022-11-30T03:22:49.490Z,83.05
2022-11-30T03:25:18.226Z,83.02
2022-11-30T03:27:51.448Z,83.01
2022-11-30T03:30:24.387Z,83.06
2022-11-30T03:32:54.346Z,82.98
2022-11-30T03:35:24.780Z,82.85
2022-11-30T03:38:00.722Z,82.80
2022-11-30T03:40:30.076Z,82.99
2022-11-30T03:43:00.478Z,82.92
2022-11-30T03:45:43.156Z,82.86
2022-11-30T03:48:25.591Z,82.89
2022-11-30T03:50:55.747Z,82.86
2022-11-30T03:53:27.812Z,82.83
2022-11-30T03:56:02.391Z,82.85
2022-11-30T03:58:31.758Z,82.89
2022-11-30T04:01:07.791Z,82.63
2022-11-30T04:03:37.370Z,82.78
2022-11-30T04:06:08.411Z,82.72
2022-11-30T04:08:37.520Z,82.76
2022-11-30T04:11:16.196Z,82.86
2022-11-30T04:13:46.111Z,82.83
2022-11-30T04:16:19.436Z,82.83
2022-11-30T04:18:57.713Z,82.81
2022-11-30T04:21:27.723Z,82.77
2022-11-30T04:24:04.825Z,82.83
2022-11-30T04:26:33.768Z,82.73
2022-11-30T04:29:05.357Z,82.83
2022-11-30T04:31:42.893Z,82.81
2022-11-30T04:34:12.864Z,82.83
2022-11-30T04:37:00.234Z,82.65
2022-11-30T04:39:33.902Z,82.62
2022-11-30T04:42:07.603Z,82.64
2022-11-30T04:44:42.135Z,82.63
2022-11-30T04:47:22.250Z,82.55
2022-11-30T04:49:51.193Z,82.72
2022-11-30T04:52:19.995Z,82.69
2022-11-30T04:54:49.100Z,82.65
2022-11-30T04:57:19.418Z,82.61
2022-11-30T04:59:53.215Z,82.66
2022-11-30T05:02:23.300Z,82.77
2022-11-30T05:04:56.307Z,82.74
2022-11-30T05:07:30.487Z,82.65
2022-11-30T05:10:10.854Z,82.72
2022-11-30T05:12:42.403Z,82.72
2022-11-30T05:15:20.739Z,82.71
2022-11-30T05:17:53.751Z,82.57
2022-11-30T05:20:22.432Z,82.64
2022-11-30T05:22:51.073Z,82.71
2022-11-30T05:25:19.709Z,82.44
2022-11-30T05:27:48.452Z,82.63
2022-11-30T05:30:17.741Z,82.67
2022-11-30T05:32:47.654Z,82.51
2022-11-30T05:35:18.676Z,82.55
2022-11-30T05:37:48.165Z,82.49
2022-11-30T05:40:20.553Z,82.47
2022-11-30T05:43:00.268Z,82.47
2022-11-30T05:45:36.297Z,82.44
2022-11-30T05:48:05.136Z,82.43
2022-11-30T05:50:38.165Z,82.39
2022-11-30T05:53:06.824Z,82.27
2022-11-30T05:55:36.279Z,82.37
2022-11-30T05:58:05.192Z,82.25
2022-11-30T06:00:35.074Z,82.25
2022-11-30T06:03:04.869Z,82.09
2022-11-30T06:05:37.323Z,82.08
2022-11-30T06:08:06.521Z,82.04
2022-11-30T06:10:41.083Z,82.09
2022-11-30T06:13:10.795Z,82.09
2022-11-30T06:15:39.462Z,82.16
2022-11-30T06:18:15.120Z,82.20
2022-11-30T06:20:45.146Z,82.15
2022-11-30T06:23:13.918Z,82.06
2022-11-30T06:25:49.777Z,82.11
2022-11-30T06:28:18.490Z,82.24
2022-11-30T06:30:47.180Z,82.19
2022-11-30T06:33:17.022Z,82.10
2022-11-30T06:35:48.623Z,81.99
2022-11-30T06:38:17.497Z,81.97
2022-11-30T06:40:46.175Z,81.93
2022-11-30T06:43:15.259Z,81.87
2022-11-30T06:45:45.622Z,81.97
2022-11-30T06:48:15.029Z,81.87
2022-11-30T06:50:49.749Z,81.90
2022-11-30T06:53:25.348Z,81.88
2022-11-30T06:55:54.845Z,81.71
2022-11-30T06:58:23.550Z,81.72
2022-11-30T07:00:52.189Z,81.72
2022-11-30T07:03:23.544Z,81.70
2022-11-30T07:05:52.268Z,81.75
2022-11-30T07:08:23.282Z,81.74
2022-11-30T07:10:53.006Z,81.55
2022-11-30T07:13:23.689Z,81.67
2022-11-30T07:15:56.205Z,81.45
2022-11-30T07:18:39.846Z,81.59
2022-11-30T07:21:10.154Z,81.63
2022-11-30T07:23:58.089Z,81.51
2022-11-30T07:26:27.369Z,81.53
2022-11-30T07:29:05.976Z,81.52
2022-11-30T07:31:43.963Z,81.49
2022-11-30T07:34:21.654Z,81.40
2022-11-30T07:36:52.203Z,81.43
2022-11-30T07:39:22.579Z,81.51
2022-11-30T07:41:51.572Z,81.47
2022-11-30T07:44:20.432Z,81.50
2022-11-30T07:46:49.067Z,81.19
2022-11-30T07:49:17.814Z,80.95
2022-11-30T07:51:46.642Z,81.00
2022-11-30T07:54:15.372Z,81.03
2022-11-30T07:56:45.484Z,80.99
2022-11-30T07:59:14.175Z,81.05
2022-11-30T08:01:43.145Z,80.97
2022-11-30T08:04:13.993Z,80.85
2022-11-30T08:06:43.006Z,80.85
2022-11-30T08:09:19.220Z,80.85
2022-11-30T08:11:51.263Z,80.93
2022-11-30T08:14:19.910Z,80.84
2022-11-30T08:16:49.137Z,80.85
2022-11-30T08:19:20.566Z,80.66
2022-11-30T08:21:49.502Z,80.66
2022-11-30T08:24:18.425Z,80.67
2022-11-30T08:26:47.099Z,80.45
2022-11-30T08:29:17.229Z,80.36
2022-11-30T08:31:46.421Z,80.22
2022-11-30T08:34:15.366Z,80.35
2022-11-30T08:36:48.746Z,80.51
2022-11-30T08:39:19.058Z,80.32
2022-11-30T08:41:47.768Z,80.26
2022-11-30T08:44:19.587Z,80.20
2022-11-30T08:46:52.428Z,79.88
2022-11-30T08:49:24.560Z,79.94
2022-11-30T08:52:17.614Z,80.08
2022-11-30T08:54:49.853Z,80.08
2022-11-30T08:57:22.937Z,79.89
2022-11-30T08:59:53.048Z,79.55
2022-11-30T09:02:23.005Z,79.62
2022-11-30T09:04:53.569Z,79.65
2022-11-30T09:07:22.939Z,79.77
2022-11-30T09:09:53.835Z,79.70
2022-11-30T09:12:23.747Z,79.68
2022-11-30T09:14:58.330Z,79.62
2022-11-30T09:17:29.146Z,79.70
2022-11-30T09:20:03.474Z,79.54
2022-11-30T09:22:38.083Z,79.44
2022-11-30T09:25:08.604Z,79.38
2022-11-30T09:27:38.769Z,79.31
2022-11-30T09:30:13.797Z,79.32
2022-11-30T09:32:42.456Z,79.21
2022-11-30T09:35:13.001Z,79.19
2022-11-30T09:37:41.847Z,78.92
2022-11-30T09:40:14.940Z,79.14
2022-11-30T09:42:58.412Z,79.16
2022-11-30T09:45:36.194Z,79.06
2022-11-30T09:48:31.233Z,79.10
2022-11-30T09:51:12.139Z,78.81
2022-11-30T09:53:46.047Z,78.98
2022-11-30T09:56:33.832Z,79.09
2022-11-30T09:59:14.998Z,78.92
2022-11-30T10:01:52.014Z,78.74
2022-11-30T10:04:30.332Z,78.64
2022-11-30T10:07:13.060Z,78.65
2022-11-30T10:10:29.850Z,78.30
2022-11-30T10:12:56.513Z,78.42
2022-11-30T10:15:35.902Z,78.55
2022-11-30T10:18:26.602Z,78.57
2022-11-30T10:21:10.157Z,78.44
2022-11-30T10:24:11.862Z,78.25
2022-11-30T10:26:54.257Z,78.23
2022-11-30T10:29:36.475Z,77.97
2022-11-30T10:32:15.543Z,78.32
2022-11-30T10:34:51.292Z,78.14
2022-11-30T10:37:26.337Z,78.29
2022-11-30T10:40:03.377Z,77.97
2022-11-30T10:42:39.231Z,77.87
2022-11-30T10:45:14.647Z,77.69
2022-11-30T10:47:51.533Z,77.58
2022-11-30T10:50:26.469Z,77.69
2022-11-30T10:52:58.795Z,77.87
2022-11-30T10:55:31.555Z,77.69
2022-11-30T10:58:11.263Z,77.42
2022-11-30T11:00:41.278Z,77.52
2022-11-30T11:03:26.651Z,77.52
2022-11-30T11:06:13.681Z,77.54
2022-11-30T11:08:45.559Z,77.47
2022-11-30T11:11:40.278Z,77.70
2022-11-30T11:14:22.028Z,77.60
2022-11-30T11:16:54.571Z,77.75
2022-11-30T11:19:34.895Z,77.80
2022-11-30T11:22:22.208Z,77.49
2022-11-30T11:24:55.116Z,77.41
2022-11-30T11:27:32.845Z,77.33
2022-11-30T11:30:07.993Z,77.57
2022-11-30T11:32:36.954Z,77.57
2022-11-30T11:35:36.810Z,77.60
2022-11-30T11:38:29.618Z,77.43
2022-11-30T11:44:05.596Z,77.20
2022-11-30T11:46:37.573Z,76.98
2022-11-30T11:49:27.895Z,77.40
2022-11-30T11:52:17.867Z,77.21
2022-11-30T11:55:05.385Z,77.21
2022-11-30T11:57:44.117Z,77.60
2022-11-30T12:00:25.955Z,77.52
2022-11-30T12:03:09.138Z,77.38
2022-11-30T12:05:51.273Z,77.49
2022-11-30T12:08:36.736Z,77.54
2022-11-30T12:11:20.418Z,77.75
2022-11-30T12:13:50.540Z,77.44
2022-11-30T12:16:51.775Z,77.81
2022-11-30T12:19:26.873Z,77.73
2022-11-30T12:22:23.518Z,77.98
2022-11-30T12:25:22.084Z,77.98
2022-11-30T12:28:08.748Z,77.98
2022-11-30T12:30:51.506Z,77.81
2022-11-30T12:33:41.864Z,77.82
2022-11-30T12:36:30.693Z,77.60
2022-11-30T12:39:06.251Z,77.69
2022-11-30T12:41:52.998Z,77.17
2022-11-30T12:44:47.569Z,77.45
2022-11-30T12:47:45.060Z,77.55
2022-11-30T12:50:40.525Z,77.45
2022-11-30T12:53:22.670Z,77.49
2022-11-30T12:56:09.701Z,77.67
2022-11-30T12:58:48.481Z,77.96
2022-11-30T13:01:43.401Z,77.87
2022-11-30T13:04:21.438Z,77.79
2022-11-30T13:06:59.524Z,77.78
2022-11-30T13:09:36.562Z,77.88
2022-11-30T13:12:13.034Z,77.80
2022-11-30T13:14:42.258Z,78.01
2022-11-30T13:17:20.560Z,77.94
2022-11-30T13:20:04.678Z,77.93
2022-11-30T13:22:47.136Z,77.99
2022-11-30T13:26:05.858Z,77.85
2022-11-30T13:28:31.268Z,77.80
2022-11-30T13:31:08.907Z,77.83
2022-11-30T13:33:50.705Z,77.77
2022-11-30T13:36:41.023Z,77.94
2022-11-30T13:39:29.389Z,77.86
2022-11-30T13:42:37.698Z,78.09
2022-11-30T13:45:32.775Z,77.63
2022-11-30T13:48:18.893Z,77.69
2022-11-30T13:50:50.715Z,77.77
2022-11-30T13:53:28.675Z,77.91
2022-11-30T13:56:01.416Z,77.81
2022-11-30T13:58:31.389Z,77.79
2022-11-30T14:04:33.207Z,77.54
2022-11-30T14:07:03.596Z,77.55
2022-11-30T14:10:23.551Z,77.36
2022-11-30T14:13:04.546Z,77.43
2022-11-30T14:15:57.342Z,77.40
2022-11-30T14:18:44.028Z,77.41
2022-11-30T14:21:26.418Z,77.66
2022-11-30T14:24:13.389Z,77.45
2022-11-30T14:26:47.716Z,77.63
2022-11-30T14:29:22.037Z,77.40
2022-11-30T14:31:59.714Z,77.32
2022-11-30T14:34:39.293Z,77.29
2022-11-30T14:37:28.147Z,77.13
2022-11-30T14:40:03.528Z,77.38
2022-11-30T14:42:34.929Z,77.41
2022-11-30T14:45:05.971Z,77.25
2022-11-30T14:47:37.074Z,77.28
2022-11-30T14:50:09.322Z,77.43
2022-11-30T14:52:57.176Z,77.41
2022-11-30T14:55:34.588Z,77.62
2022-11-30T14:58:18.091Z,77.56
2022-11-30T15:00:48.551Z,77.51
2022-11-30T15:03:26.505Z,77.48
2022-11-30T15:05:59.763Z,77.38
2022-11-30T15:08:36.303Z,77.64
2022-11-30T15:11:10.596Z,77.33
2022-11-30T15:13:43.324Z,77.49
2022-11-30T15:16:21.854Z,77.41
2022-11-30T15:18:51.714Z,77.40
2022-11-30T15:21:24.052Z,77.51
2022-11-30T15:24:03.717Z,77.91
2022-11-30T15:26:39.161Z,77.96
2022-11-30T15:29:16.834Z,77.95
2022-11-30T15:31:50.218Z,78.02
2022-11-30T15:34:23.492Z,77.86
2022-11-30T15:36:55.966Z,78.03
2022-11-30T15:39:27.826Z,78.01
2022-11-30T15:42:01.181Z,78.01
2022-11-30T15:44:42.076Z,77.86
2022-11-30T15:47:27.492Z,77.90
2022-11-30T15:49:57.397Z,77.85
2022-11-30T15:52:29.999Z,77.75
2022-11-30T15:55:04.132Z,77.73
2022-11-30T15:58:01.354Z,77.80
2022-11-30T16:00:30.829Z,77.83
2022-11-30T16:03:09.780Z,77.93
2022-11-30T16:05:40.668Z,78.08
2022-11-30T16:08:17.100Z,77.93
2022-11-30T16:10:46.227Z,77.80
2022-11-30T16:13:26.173Z,77.99
2022-11-30T16:15:55.761Z,77.88
2022-11-30T16:18:27.433Z,77.94
2022-11-30T16:21:00.172Z,77.89
2022-11-30T16:23:30.054Z,77.78
2022-11-30T16:25:59.370Z,78.09
2022-11-30T16:28:29.629Z,77.71
2022-11-30T16:31:02.078Z,77.93
2022-11-30T16:33:30.820Z,77.83
2022-11-30T16:36:04.437Z,77.95
2022-11-30T16:38:33.085Z,77.95
2022-11-30T16:41:16.613Z,77.95
2022-11-30T16:43:48.613Z,78.03
2022-11-30T16:46:20.763Z,77.97
2022-11-30T16:48:50.181Z,77.79
2022-11-30T16:51:23.019Z,77.81
2022-11-30T16:53:51.733Z,77.85
2022-11-30T16:56:20.797Z,77.93
2022-11-30T16:58:51.725Z,77.91
2022-11-30T17:01:34.539Z,78.13
2022-11-30T17:04:12.052Z,78.13
2022-11-30T17:06:40.744Z,78.05
2022-11-30T17:09:13.323Z,78.03
2022-11-30T17:11:43.824Z,78.16
2022-11-30T17:14:15.239Z,78.06
2022-11-30T17:16:44.216Z,78.04
2022-11-30T17:19:13.046Z,78.11
2022-11-30T17:21:44.796Z,78.40
2022-11-30T17:24:14.115Z,78.30
2022-11-30T17:26:42.744Z,78.39
2022-11-30T17:29:13.034Z,78.39
2022-11-30T17:31:41.724Z,78.30
2022-11-30T17:34:11.048Z,78.36
2022-11-30T17:36:40.030Z,78.04
2022-11-30T17:39:10.809Z,78.18
2022-11-30T17:41:42.915Z,78.43
2022-11-30T17:44:13.439Z,78.34
2022-11-30T17:46:47.861Z,78.13
2022-11-30T17:49:19.877Z,78.30
2022-11-30T17:51:48.879Z,78.19
2022-11-30T17:54:19.300Z,78.40
2022-11-30T17:56:49.778Z,78.36
2022-11-30T17:59:23.599Z,78.33
2022-11-30T18:01:55.422Z,78.30
2022-11-30T18:04:26.331Z,78.46
2022-11-30T18:06:56.333Z,78.33
2022-11-30T18:09:25.551Z,78.46
2022-11-30T18:11:56.783Z,78.48
2022-11-30T18:14:26.927Z,78.46
2022-11-30T18:16:55.832Z,78.52
2022-11-30T18:19:24.659Z,78.40
2022-11-30T18:21:53.364Z,78.43
2022-11-30T18:24:25.268Z,78.41
2022-11-30T18:26:57.314Z,78.45
2022-11-30T18:29:28.036Z,78.43
2022-11-30T18:31:56.682Z,78.37
2022-11-30T18:34:27.094Z,78.44
2022-11-30T18:36:55.791Z,78.21
2022-11-30T18:39:24.499Z,78.21
2022-11-30T18:41:53.481Z,78.13
2022-11-30T18:44:22.062Z,78.16
2022-11-30T18:46:52.384Z,78.25
2022-11-30T18:49:23.644Z,78.23
2022-11-30T18:51:53.381Z,78.32
2022-11-30T18:54:22.385Z,78.28
2022-11-30T18:56:51.068Z,78.42
2022-11-30T18:59:20.566Z,78.42
2022-11-30T19:01:51.125Z,78.26
2022-11-30T19:04:21.222Z,78.32
2022-11-30T19:06:49.965Z,78.34
2022-11-30T19:09:24.165Z,78.19
2022-11-30T19:11:52.857Z,78.25
2022-11-30T19:14:22.540Z,78.16
2022-11-30T19:16:51.339Z,78.21
2022-11-30T19:19:23.267Z,78.30
2022-11-30T19:21:51.862Z,78.18
2022-11-30T19:24:20.541Z,78.06
2022-11-30T19:26:50.435Z,77.98
2022-11-30T19:29:19.447Z,78.02
2022-11-30T19:31:50.125Z,78.10
2022-11-30T19:34:21.588Z,78.08
2022-11-30T19:36:50.230Z,78.09
2022-11-30T19:39:19.116Z,78.16
2022-11-30T19:41:49.397Z,78.11
2022-11-30T19:44:18.222Z,78.12
2022-11-30T19:46:46.957Z,78.08
2022-11-30T19:49:16.135Z,78.10
2022-11-30T19:51:46.315Z,78.18
2022-11-30T19:54:15.043Z,78.27
2022-11-30T19:56:46.756Z,78.16
2022-11-30T19:59:15.459Z,78.24
2022-11-30T20:01:44.357Z,78.29
2022-11-30T20:04:13.094Z,78.03
2022-11-30T20:06:41.722Z,78.08
2022-11-30T20:09:12.845Z,78.10
2022-11-30T20:11:42.593Z,78.09
2022-11-30T20:14:17.007Z,78.20
2022-11-30T20:16:45.680Z,78.24
2022-11-30T20:19:14.356Z,77.94
2022-11-30T20:21:45.006Z,78.14
2022-11-30T20:24:15.858Z,78.01
2022-11-30T20:26:46.026Z,77.98
2022-11-30T20:29:18.574Z,77.91
2022-11-30T20:31:49.779Z,78.16
2022-11-30T20:34:19.185Z,77.96
2022-11-30T20:36:48.036Z,77.97
2022-11-30T20:39:18.281Z,78.09
2022-11-30T20:41:46.889Z,78.05
2022-11-30T20:44:16.951Z,77.79
2022-11-30T20:46:45.693Z,78.13
2022-11-30T20:49:18.389Z,78.33
2022-11-30T20:51:47.595Z,78.41
2022-11-30T20:54:18.591Z,78.32
2022-11-30T20:56:50.918Z,78.42
2022-11-30T20:59:23.836Z,78.35
2022-11-30T21:01:52.790Z,78.33
2022-11-30T21:04:24.120Z,78.21
2022-11-30T21:06:53.061Z,78.18
2022-11-30T21:09:23.389Z,78.16
2022-11-30T21:11:52.148Z,78.36
2022-11-30T21:14:20.916Z,78.18
2022-11-30T21:16:49.683Z,78.08
2022-11-30T21:19:18.518Z,77.96
2022-11-30T21:21:47.360Z,77.71
2022-11-30T21:24:16.062Z,77.79
2022-11-30T21:26:46.167Z,77.88
2022-11-30T21:29:19.098Z,77.88
2022-11-30T21:31:48.165Z,77.98
2022-11-30T21:34:16.931Z,77.80
2022-11-30T21:36:45.759Z,77.70
2022-11-30T21:39:16.693Z,77.75
2022-11-30T21:41:46.887Z,77.66
2022-11-30T21:44:17.345Z,77.71
2022-11-30T21:46:49.210Z,77.78
2022-11-30T21:49:18.236Z,77.97
2022-11-30T21:51:46.883Z,77.89
2022-11-30T21:54:15.642Z,77.95
2022-11-30T21:56:46.000Z,77.98
2022-11-30T21:59:16.404Z,77.96
2022-11-30T22:01:46.324Z,77.97
2022-11-30T22:04:16.894Z,77.98
2022-11-30T22:06:46.045Z,77.90
2022-11-30T22:09:16.640Z,77.93
2022-11-30T22:11:47.212Z,77.78
2022-11-30T22:14:18.767Z,77.97
2022-11-30T22:16:47.774Z,78.05
2022-11-30T22:19:19.335Z,78.21
2022-11-30T22:21:50.605Z,78.16
2022-11-30T22:24:20.115Z,77.93
2022-11-30T22:26:50.132Z,77.70
2022-11-30T22:29:32.891Z,77.66
2022-11-30T22:32:01.517Z,77.47
2022-11-30T22:34:36.050Z,77.59
2022-11-30T22:37:08.899Z,77.62
2022-11-30T22:39:39.154Z,77.50
2022-11-30T22:42:15.603Z,77.28
2022-11-30T22:44:47.767Z,77.33
2022-11-30T22:47:18.424Z,77.20
2022-11-30T22:49:48.901Z,77.21
2022-11-30T22:53:02.868Z,77.19
2022-11-30T22:55:33.680Z,76.97
2022-11-30T22:58:03.211Z,77.09
2022-11-30T23:00:42.617Z,76.89
2022-11-30T23:03:13.363Z,77.01
2022-11-30T23:05:44.665Z,77.04
2022-11-30T23:08:35.358Z,77.35
2022-11-30T23:11:09.410Z,76.90
2022-11-30T23:13:40.024Z,76.96
2022-11-30T23:16:24.850Z,76.79
2022-11-30T23:18:57.902Z,76.74
2022-11-30T23:21:38.905Z,76.85
2022-11-30T23:24:14.057Z,76.84
2022-11-30T23:26:44.816Z,77.13
2022-11-30T23:29:16.351Z,76.82
2022-11-30T23:31:49.044Z,76.90
2022-11-30T23:34:32.086Z,76.82
2022-11-30T23:37:01.307Z,76.81
2022-11-30T23:39:30.594Z,76.50
2022-11-30T23:42:01.425Z,76.62
2022-11-30T23:44:33.145Z,76.64
2022-11-30T23:47:08.316Z,76.80
2022-11-30T23:49:38.736Z,76.67
2022-11-30T23:52:20.928Z,76.70
2022-11-30T23:54:50.619Z,76.54
2022-11-30T23:57:33.768Z,76.47
